createdAt,value
2023-01-31T00:00:09.869Z,94414.61
2023-01-31T00:02:36.363Z,94412.05
2023-01-31T00:05:02.594Z,94419.75
2023-01-31T00:07:29.053Z,94425.36
2023-01-31T00:09:55.393Z,94429.22
2023-01-31T00:12:21.783Z,94430.17
2023-01-31T00:14:48.120Z,94435.31
2023-01-31T00:17:14.514Z,94439.64
2023-01-31T00:19:40.865Z,94439.42
2023-01-31T00:22:07.244Z,94428.67
2023-01-31T00:24:33.587Z,94428.33
2023-01-31T00:26:59.977Z,94390.45
2023-01-31T00:29:27.263Z,94412.44
2023-01-31T00:31:52.760Z,94407.55
2023-01-31T00:34:19.048Z,94411.27
2023-01-31T00:36:45.464Z,94418.86
2023-01-31T00:39:11.807Z,94421.08
2023-01-31T00:41:38.621Z,94421.69
2023-01-31T00:44:04.610Z,94434.06
2023-01-31T00:46:31.031Z,94431.25
2023-01-31T00:48:57.359Z,94437.10
2023-01-31T00:51:25.593Z,94429.86
2023-01-31T00:53:50.087Z,94431.61
2023-01-31T00:56:16.503Z,94429.86
2023-01-31T00:58:42.835Z,94426.36
2023-01-31T01:01:09.262Z,94417.00
2023-01-31T01:03:35.553Z,94419.58
2023-01-31T01:06:01.975Z,94417.47
2023-01-31T01:08:28.319Z,94412.12
2023-01-31T01:10:54.711Z,94417.11
2023-01-31T01:13:21.051Z,94410.02
2023-01-31T01:15:47.451Z,94425.19
2023-01-31T01:18:13.781Z,94425.29
2023-01-31T01:20:40.165Z,94424.00
2023-01-31T01:23:06.506Z,94432.53
2023-01-31T01:25:32.885Z,94427.53
2023-01-31T01:27:59.227Z,94428.83
2023-01-31T01:30:25.621Z,94422.50
2023-01-31T01:32:51.966Z,94418.19
2023-01-31T01:35:18.640Z,94416.55
2023-01-31T01:37:44.699Z,94414.80
2023-01-31T01:40:11.121Z,94404.52
2023-01-31T01:42:37.466Z,94406.77
2023-01-31T01:45:03.856Z,94398.56
2023-01-31T01:47:30.383Z,94397.41
2023-01-31T01:49:56.589Z,94395.66
2023-01-31T01:52:22.929Z,94392.27
2023-01-31T01:54:49.350Z,94390.63
2023-01-31T01:57:17.405Z,94397.06
2023-01-31T01:59:42.105Z,94388.53
2023-01-31T02:02:08.489Z,94388.06
2023-01-31T02:04:34.875Z,94391.45
2023-01-31T02:07:01.218Z,94395.77
2023-01-31T02:09:27.707Z,94388.53
2023-01-31T02:11:53.959Z,94386.92
2023-01-31T02:14:20.336Z,94391.23
2023-01-31T02:16:46.699Z,94389.48
2023-01-31T02:19:13.070Z,94390.88
2023-01-31T02:21:39.411Z,94379.21
2023-01-31T02:24:05.808Z,94392.38
2023-01-31T02:26:32.173Z,94392.52
2023-01-31T02:28:58.539Z,94383.85
2023-01-31T02:31:25.264Z,94387.84
2023-01-31T02:33:51.268Z,94387.84
2023-01-31T02:36:17.611Z,94375.93
2023-01-31T02:38:44.027Z,94383.64
2023-01-31T02:41:10.400Z,94384.00
2023-01-31T02:43:36.808Z,94381.21
2023-01-31T02:46:03.198Z,94380.39
2023-01-31T02:48:29.648Z,94390.53
2023-01-31T02:50:55.981Z,94388.92
2023-01-31T02:53:22.586Z,94390.78
2023-01-31T02:55:48.715Z,94391.48
2023-01-31T02:58:15.099Z,94399.66
2023-01-31T03:00:41.436Z,94398.84
2023-01-31T03:03:07.856Z,94408.77
2023-01-31T03:05:34.284Z,94415.19
2023-01-31T03:08:00.805Z,94415.08
2023-01-31T03:10:27.144Z,94416.83
2023-01-31T03:12:53.528Z,94429.43
2023-01-31T03:15:20.247Z,94432.14
2023-01-31T03:17:46.288Z,94439.25
2023-01-31T03:20:12.624Z,94446.13
2023-01-31T03:22:39.003Z,94450.91
2023-01-31T03:25:05.348Z,94453.38
2023-01-31T03:27:31.728Z,94453.23
2023-01-31T03:29:58.070Z,94447.42
2023-01-31T03:32:24.499Z,94456.41
2023-01-31T03:34:50.834Z,94457.23
2023-01-31T03:37:17.821Z,94464.34
2023-01-31T03:39:43.622Z,94461.44
2023-01-31T03:42:10.064Z,94463.52
2023-01-31T03:44:36.401Z,94467.73
2023-01-31T03:47:02.835Z,94468.91
2023-01-31T03:49:29.179Z,94487.14
2023-01-31T03:51:55.562Z,94490.86
2023-01-31T03:54:21.929Z,94497.28
2023-01-31T03:56:48.311Z,94496.00
2023-01-31T03:59:14.674Z,94494.03
2023-01-31T04:01:41.127Z,94492.28
2023-01-31T04:04:07.402Z,94502.06
2023-01-31T04:06:33.785Z,94503.35
2023-01-31T04:09:00.123Z,94503.84
2023-01-31T04:11:26.520Z,94498.21
2023-01-31T04:13:52.853Z,94497.88
2023-01-31T04:16:19.253Z,94498.70
2023-01-31T04:18:46.690Z,94504.63
2023-01-31T04:21:11.979Z,94503.84
2023-01-31T04:23:38.313Z,94503.35
2023-01-31T04:26:04.697Z,94516.09
2023-01-31T04:28:31.037Z,94510.73
2023-01-31T04:30:57.426Z,94514.45
2023-01-31T04:33:23.763Z,94502.67
2023-01-31T04:35:50.144Z,94511.88
2023-01-31T04:38:16.479Z,94520.77
2023-01-31T04:40:42.866Z,94524.38
2023-01-31T04:43:09.335Z,94530.45
2023-01-31T04:45:35.628Z,94518.42
2023-01-31T04:48:01.963Z,94530.09
2023-01-31T04:50:28.378Z,94540.73
2023-01-31T04:52:54.712Z,94537.20
2023-01-31T04:55:21.445Z,94541.41
2023-01-31T04:57:47.436Z,94545.13
2023-01-31T05:00:13.821Z,94549.09
2023-01-31T05:02:40.209Z,94553.20
2023-01-31T05:05:06.938Z,94557.56
2023-01-31T05:07:32.897Z,94550.31
2023-01-31T05:09:59.291Z,94553.70
2023-01-31T05:12:25.625Z,94546.17
2023-01-31T05:14:52.018Z,94550.77
2023-01-31T05:17:18.353Z,94550.74
2023-01-31T05:19:44.816Z,94554.47
2023-01-31T05:22:11.151Z,94567.43
2023-01-31T05:24:37.534Z,94555.01
2023-01-31T05:27:03.893Z,94551.36
2023-01-31T05:29:30.267Z,94553.44
2023-01-31T05:31:56.654Z,94547.97
2023-01-31T05:34:23.019Z,94556.16
2023-01-31T05:36:49.353Z,94561.62
2023-01-31T05:39:15.813Z,94556.22
2023-01-31T05:41:42.182Z,94567.55
2023-01-31T05:44:08.559Z,94561.01
2023-01-31T05:54:51.832Z,94578.08
2023-01-31T05:57:18.171Z,94579.30
2023-01-31T05:59:44.565Z,94576.08
2023-01-31T06:02:10.921Z,94584.87
2023-01-31T06:04:37.282Z,94581.55
2023-01-31T06:07:03.623Z,94579.43
2023-01-31T06:09:30.050Z,94581.86
2023-01-31T06:11:56.392Z,94577.31
2023-01-31T06:14:22.783Z,94581.99
2023-01-31T06:16:49.189Z,94588.17
2023-01-31T06:19:15.530Z,94583.99
2023-01-31T06:21:41.873Z,94582.45
2023-01-31T06:24:08.257Z,94585.02
2023-01-31T06:26:34.621Z,94584.16
2023-01-31T06:29:00.984Z,94588.13
2023-01-31T06:31:27.403Z,94587.77
2023-01-31T06:33:53.724Z,94593.95
2023-01-31T06:36:20.078Z,94595.90
2023-01-31T06:38:46.490Z,94595.19
2023-01-31T06:41:12.859Z,94584.17
2023-01-31T06:43:39.257Z,94588.73
2023-01-31T06:46:05.630Z,94592.92
2023-01-31T06:48:31.984Z,94599.34
2023-01-31T06:50:58.339Z,94606.60
2023-01-31T06:53:24.727Z,94602.55
2023-01-31T06:55:51.068Z,94603.77
2023-01-31T06:58:20.365Z,94609.95
2023-01-31T07:00:43.800Z,94608.66
2023-01-31T07:03:10.187Z,94608.20
2023-01-31T07:05:36.550Z,94615.06
2023-01-31T07:08:02.930Z,94619.64
2023-01-31T07:10:29.355Z,94610.38
2023-01-31T07:12:55.654Z,94610.38
2023-01-31T07:15:22.479Z,94611.33
2023-01-31T07:17:48.385Z,94610.56
2023-01-31T07:20:14.738Z,94603.60
2023-01-31T07:22:41.121Z,94608.05
2023-01-31T07:25:07.478Z,94618.80
2023-01-31T07:27:33.863Z,94619.68
2023-01-31T07:30:00.190Z,94621.54
2023-01-31T07:32:26.588Z,94623.78
2023-01-31T07:34:52.926Z,94613.73
2023-01-31T07:37:19.405Z,94616.90
2023-01-31T07:39:45.750Z,94620.50
2023-01-31T07:42:12.137Z,94624.58
2023-01-31T07:44:38.495Z,94626.48
2023-01-31T07:47:04.901Z,94627.09
2023-01-31T07:49:31.292Z,94622.38
2023-01-31T07:51:57.664Z,94628.59
2023-01-31T07:54:23.999Z,94630.47
2023-01-31T07:56:50.399Z,94631.84
2023-01-31T07:59:16.743Z,94628.56
2023-01-31T08:01:43.146Z,94626.81
2023-01-31T08:04:20.435Z,94635.73
2023-01-31T08:06:35.887Z,94632.31
2023-01-31T08:09:02.235Z,94627.41
2023-01-31T08:11:28.628Z,94625.47
2023-01-31T08:13:54.993Z,94623.45
2023-01-31T08:16:21.363Z,94630.19
2023-01-31T08:18:47.716Z,94631.59
2023-01-31T08:21:14.104Z,94629.05
2023-01-31T08:23:40.474Z,94628.34
2023-01-31T08:26:06.867Z,94627.34
2023-01-31T08:28:33.210Z,94628.31
2023-01-31T08:31:08.707Z,94622.89
2023-01-31T08:33:25.946Z,94624.66
2023-01-31T08:35:52.334Z,94624.50
2023-01-31T08:41:01.475Z,94625.06
2023-01-31T08:43:27.871Z,94622.75
2023-01-31T08:45:54.342Z,94624.33
2023-01-31T08:48:20.740Z,94627.31
2023-01-31T08:50:47.081Z,94627.26
2023-01-31T08:53:13.483Z,94630.42
2023-01-31T08:55:39.863Z,94630.95
2023-01-31T08:58:06.277Z,94622.83
2023-01-31T09:00:32.638Z,94626.03
2023-01-31T09:02:59.103Z,94620.11
2023-01-31T09:05:25.384Z,94619.34
2023-01-31T09:07:51.790Z,94617.17
2023-01-31T09:10:18.153Z,94612.46
2023-01-31T09:12:44.540Z,94615.13
2023-01-31T09:15:10.884Z,94611.52
2023-01-31T09:17:37.270Z,94615.45
2023-01-31T09:20:03.618Z,94612.93
2023-01-31T09:22:30.030Z,94611.26
2023-01-31T09:24:56.383Z,94608.48
2023-01-31T09:27:22.775Z,94582.85
2023-01-31T09:29:49.130Z,94603.59
2023-01-31T09:32:15.520Z,94605.08
2023-01-31T09:34:41.872Z,94603.38
2023-01-31T09:37:08.292Z,94607.59
2023-01-31T09:39:34.637Z,94606.77
2023-01-31T09:42:01.041Z,94592.74
2023-01-31T09:44:27.383Z,94594.05
2023-01-31T09:46:53.854Z,94590.17
2023-01-31T09:49:20.146Z,94592.00
2023-01-31T09:51:46.546Z,94587.66
2023-01-31T09:54:12.894Z,94593.21
2023-01-31T09:56:39.275Z,94581.45
2023-01-31T09:59:06.834Z,94581.45
2023-01-31T10:01:32.013Z,94586.02
2023-01-31T10:03:58.461Z,94580.95
2023-01-31T10:06:24.764Z,94579.39
2023-01-31T10:08:51.102Z,94562.66
2023-01-31T10:11:17.501Z,94580.52
2023-01-31T10:13:43.851Z,94568.71
2023-01-31T10:16:10.235Z,94577.94
2023-01-31T10:18:36.614Z,94572.72
2023-01-31T10:21:05.080Z,94574.48
2023-01-31T10:23:29.327Z,94568.33
2023-01-31T10:25:55.709Z,94571.77
2023-01-31T10:28:22.068Z,94571.14
2023-01-31T10:30:48.489Z,94570.20
2023-01-31T10:33:14.812Z,94571.86
2023-01-31T10:35:41.199Z,94547.98
2023-01-31T10:38:07.533Z,94547.98
2023-01-31T10:40:33.944Z,94557.80
2023-01-31T10:43:00.278Z,94550.95
2023-01-31T10:45:26.711Z,94558.88
2023-01-31T10:47:53.115Z,94556.38
2023-01-31T10:50:19.875Z,94556.38
2023-01-31T10:52:48.757Z,94558.61
2023-01-31T10:55:12.242Z,94541.78
2023-01-31T10:57:38.759Z,94541.78
2023-01-31T11:00:04.970Z,94561.66
2023-01-31T11:02:31.353Z,94566.43
2023-01-31T11:04:57.704Z,94574.64
2023-01-31T11:07:24.036Z,94574.64
2023-01-31T11:09:50.422Z,94565.45
2023-01-31T11:12:16.766Z,94567.17
2023-01-31T11:14:43.159Z,94567.06
2023-01-31T11:17:09.513Z,94568.86
2023-01-31T11:19:35.898Z,94570.78
2023-01-31T11:22:02.256Z,94567.11
2023-01-31T11:24:30.847Z,94567.11
2023-01-31T11:26:55.015Z,94572.77
2023-01-31T11:29:21.418Z,94570.78
2023-01-31T11:31:47.816Z,94571.87
2023-01-31T11:34:14.145Z,94572.22
2023-01-31T11:36:40.487Z,94570.19
2023-01-31T11:39:06.879Z,94570.19
2023-01-31T11:41:33.248Z,94565.53
2023-01-31T11:43:59.684Z,94542.39
2023-01-31T11:46:26.084Z,94561.63
2023-01-31T11:48:52.420Z,94557.75
2023-01-31T11:51:18.809Z,94557.06
2023-01-31T11:53:45.204Z,94557.06
2023-01-31T11:56:11.537Z,94555.88
2023-01-31T11:58:37.921Z,94560.64
2023-01-31T12:01:04.346Z,94561.75
2023-01-31T12:03:30.792Z,94548.02
2023-01-31T12:05:57.089Z,94548.02
2023-01-31T12:08:23.513Z,94556.34
2023-01-31T12:10:49.834Z,94559.83
2023-01-31T12:13:19.166Z,94557.91
2023-01-31T12:15:42.737Z,94564.09
2023-01-31T12:18:09.123Z,94571.12
2023-01-31T12:20:35.478Z,94571.16
2023-01-31T12:23:01.884Z,94571.23
2023-01-31T12:25:28.255Z,94573.75
2023-01-31T12:27:54.639Z,94570.27
2023-01-31T12:30:21.037Z,94571.44
2023-01-31T12:32:47.377Z,94575.77
2023-01-31T12:35:13.753Z,94569.67
2023-01-31T12:37:40.148Z,94574.57
2023-01-31T12:40:22.768Z,94574.72
2023-01-31T12:42:32.884Z,94577.16
2023-01-31T12:44:59.238Z,94572.61
2023-01-31T12:47:25.623Z,94567.55
2023-01-31T12:49:51.961Z,94564.98
2023-01-31T12:52:18.347Z,94566.62
2023-01-31T12:54:44.729Z,94566.08
2023-01-31T12:57:11.084Z,94567.09
2023-01-31T12:59:37.471Z,94564.86
2023-01-31T13:02:03.842Z,94552.78
2023-01-31T13:04:30.218Z,94552.78
2023-01-31T13:06:56.605Z,94569.45
2023-01-31T13:09:22.964Z,94578.00
2023-01-31T13:11:49.375Z,94577.27
2023-01-31T13:14:15.722Z,94582.84
2023-01-31T13:16:42.103Z,94580.42
2023-01-31T13:19:08.447Z,94586.05
2023-01-31T13:21:34.880Z,94587.14
2023-01-31T13:24:01.212Z,94583.55
2023-01-31T13:26:27.670Z,94597.66
2023-01-31T13:28:54.010Z,94594.61
2023-01-31T13:31:20.474Z,94594.73
2023-01-31T13:33:46.752Z,94590.53
2023-01-31T13:36:13.149Z,94591.06
2023-01-31T13:38:39.498Z,94599.81
2023-01-31T13:41:05.881Z,94576.20
2023-01-31T13:43:32.241Z,94600.44
2023-01-31T13:45:58.622Z,94595.63
2023-01-31T13:48:24.965Z,94594.52
2023-01-31T13:50:51.391Z,94597.31
2023-01-31T13:53:17.777Z,94599.57
2023-01-31T13:55:44.170Z,94599.03
2023-01-31T13:58:10.549Z,94597.78
2023-01-31T14:00:36.948Z,94600.78
2023-01-31T14:03:03.408Z,94601.70
2023-01-31T14:05:29.781Z,94595.82
2023-01-31T14:07:56.123Z,94598.58
2023-01-31T14:10:22.562Z,94600.90
2023-01-31T14:12:48.911Z,94585.09
2023-01-31T14:15:15.304Z,94602.89
2023-01-31T14:17:42.100Z,94605.92
2023-01-31T14:20:08.487Z,94616.05
2023-01-31T14:22:34.939Z,94616.38
2023-01-31T14:25:01.225Z,94611.95
2023-01-31T14:27:27.558Z,94614.95
2023-01-31T14:29:53.969Z,94606.50
2023-01-31T14:32:20.339Z,94615.33
2023-01-31T14:34:46.735Z,94609.44
2023-01-31T14:37:13.075Z,94611.66
2023-01-31T14:39:39.475Z,94609.82
2023-01-31T14:42:05.817Z,94609.06
2023-01-31T14:44:32.200Z,94616.62
2023-01-31T14:47:01.215Z,94620.66
2023-01-31T14:49:24.928Z,94624.50
2023-01-31T14:51:51.302Z,94625.44
2023-01-31T14:54:17.687Z,94633.91
2023-01-31T14:56:44.034Z,94634.84
2023-01-31T14:59:10.425Z,94641.55
2023-01-31T15:01:37.983Z,94646.24
2023-01-31T15:04:03.167Z,94651.19
2023-01-31T15:06:29.500Z,94657.49
2023-01-31T15:08:55.944Z,94660.89
2023-01-31T15:11:35.328Z,94657.17
2023-01-31T15:13:48.626Z,94671.67
2023-01-31T15:16:15.009Z,94671.14
2023-01-31T15:18:41.341Z,94672.81
2023-01-31T15:21:07.689Z,94674.77
2023-01-31T15:23:34.117Z,94673.28
2023-01-31T15:26:00.466Z,94675.39
2023-01-31T15:28:26.841Z,94676.12
2023-01-31T15:30:53.185Z,94675.44
2023-01-31T15:33:19.579Z,94685.48
2023-01-31T15:35:45.913Z,94683.64
2023-01-31T15:38:12.302Z,94682.94
2023-01-31T15:40:38.652Z,94682.94
2023-01-31T15:43:05.037Z,94687.30
2023-01-31T15:45:31.381Z,94693.86
2023-01-31T15:47:57.774Z,94695.14
2023-01-31T15:50:24.116Z,94693.39
2023-01-31T15:52:50.510Z,94703.34
2023-01-31T15:55:16.857Z,94706.39
2023-01-31T15:57:43.276Z,94702.67
2023-01-31T16:00:09.653Z,94703.61
2023-01-31T16:02:36.152Z,94710.41
2023-01-31T16:05:02.668Z,94705.16
2023-01-31T16:07:29.053Z,94704.22
2023-01-31T16:09:55.407Z,94709.02
2023-01-31T16:12:21.794Z,94719.11
2023-01-31T16:14:48.132Z,94721.08
2023-01-31T16:17:14.519Z,94718.76
2023-01-31T16:19:40.909Z,94720.20
2023-01-31T16:22:07.245Z,94720.88
2023-01-31T16:24:34.877Z,94724.38
2023-01-31T16:27:00.037Z,94720.77
2023-01-31T16:29:26.422Z,94724.28
2023-01-31T16:31:53.011Z,94725.94
2023-01-31T16:34:19.173Z,94728.41
2023-01-31T16:36:45.518Z,94727.69
2023-01-31T16:39:11.923Z,94733.67
2023-01-31T16:41:38.289Z,94731.91
2023-01-31T16:44:04.686Z,94733.31
2023-01-31T16:46:31.093Z,94745.16
2023-01-31T16:48:57.428Z,94748.56
2023-01-31T16:51:23.774Z,94749.49
2023-01-31T16:53:51.418Z,94748.34
2023-01-31T16:56:16.542Z,94750.10
2023-01-31T16:58:43.021Z,94760.55
2023-01-31T17:01:09.391Z,94757.83
2023-01-31T17:03:36.367Z,94771.78
2023-01-31T17:06:02.094Z,94766.28
2023-01-31T17:08:28.506Z,94770.97
2023-01-31T17:10:54.849Z,94771.83
2023-01-31T17:13:21.279Z,94772.97
2023-01-31T17:15:47.644Z,94772.75
2023-01-31T17:18:13.998Z,94778.94
2023-01-31T17:20:40.347Z,94769.61
2023-01-31T17:23:06.739Z,94777.20
2023-01-31T17:25:33.125Z,94772.86
2023-01-31T17:27:59.464Z,94775.23
2023-01-31T17:30:25.844Z,94781.80
2023-01-31T17:32:52.237Z,94784.70
2023-01-31T17:35:19.020Z,94786.21
2023-01-31T17:37:44.965Z,94783.09
2023-01-31T17:40:11.324Z,94786.95
2023-01-31T17:42:37.703Z,94787.75
2023-01-31T17:45:04.062Z,94789.64
2023-01-31T17:47:30.487Z,94784.74
2023-01-31T17:49:56.901Z,94784.27
2023-01-31T17:52:23.241Z,94785.67
2023-01-31T17:54:49.610Z,94782.16
2023-01-31T17:57:16.026Z,94788.25
2023-01-31T17:59:42.344Z,94793.07
2023-01-31T18:02:08.737Z,94802.09
2023-01-31T18:04:35.102Z,94800.91
2023-01-31T18:07:01.586Z,94802.55
2023-01-31T18:09:27.940Z,94803.95
2023-01-31T18:11:54.333Z,94810.53
2023-01-31T18:14:20.684Z,94809.10
2023-01-31T18:16:48.813Z,94805.63
2023-01-31T18:19:13.441Z,94811.56
2023-01-31T18:21:46.805Z,94815.42
2023-01-31T18:24:06.163Z,94818.25
2023-01-31T18:26:32.729Z,94822.94
2023-01-31T18:28:58.977Z,94829.16
2023-01-31T18:31:25.518Z,94831.13
2023-01-31T18:33:51.737Z,94836.77
2023-01-31T18:36:18.127Z,94837.70
2023-01-31T18:38:44.485Z,94837.12
2023-01-31T18:41:10.874Z,94836.44
2023-01-31T18:43:37.221Z,94845.09
2023-01-31T18:46:04.853Z,94844.05
2023-01-31T18:48:30.071Z,94843.58
2023-01-31T18:50:57.466Z,94842.54
2023-01-31T18:53:22.842Z,94839.14
2023-01-31T18:55:49.239Z,94846.05
2023-01-31T18:58:15.582Z,94839.03
2023-01-31T19:00:42.026Z,94837.14
2023-01-31T19:03:09.557Z,94840.78
2023-01-31T19:05:34.719Z,94845.23
2023-01-31T19:08:01.069Z,94847.35
2023-01-31T19:10:27.457Z,94842.53
2023-01-31T19:12:53.811Z,94841.27
2023-01-31T19:15:20.467Z,94840.44
2023-01-31T19:17:46.553Z,94845.27
2023-01-31T19:20:12.945Z,94855.55
2023-01-31T19:22:39.293Z,94848.77
2023-01-31T19:25:05.741Z,94856.59
2023-01-31T19:27:32.062Z,94854.16
2023-01-31T19:29:58.457Z,94850.83
2023-01-31T19:32:24.816Z,94856.37
2023-01-31T19:34:53.918Z,94856.71
2023-01-31T19:37:18.794Z,94862.19
2023-01-31T19:39:43.992Z,94864.30
2023-01-31T19:42:10.333Z,94868.50
2023-01-31T19:44:36.734Z,94862.06
2023-01-31T19:47:03.081Z,94868.04
2023-01-31T19:49:29.471Z,94869.45
2023-01-31T19:51:55.817Z,94865.02
2023-01-31T19:54:22.208Z,94868.41
2023-01-31T19:56:48.579Z,94870.27
2023-01-31T19:59:15.001Z,94870.27
2023-01-31T20:01:41.337Z,94875.88
2023-01-31T20:04:07.779Z,94877.30
2023-01-31T20:06:34.125Z,94870.04
2023-01-31T20:09:00.519Z,94876.47
2023-01-31T20:11:26.857Z,94874.96
2023-01-31T20:13:53.242Z,94889.58
2023-01-31T20:16:19.624Z,94890.50
2023-01-31T20:18:45.978Z,94893.44
2023-01-31T20:21:12.324Z,94894.03
2023-01-31T20:23:38.709Z,94897.89
2023-01-31T20:26:05.048Z,94903.60
2023-01-31T20:28:31.431Z,94901.16
2023-01-31T20:30:57.811Z,94906.64
2023-01-31T20:33:24.172Z,94911.78
2023-01-31T20:35:50.518Z,94912.84
2023-01-31T20:38:16.910Z,94909.12
2023-01-31T20:40:43.241Z,94916.84
2023-01-31T20:43:09.620Z,94921.62
2023-01-31T20:45:35.954Z,94921.72
2023-01-31T20:48:02.357Z,94922.22
2023-01-31T20:50:28.701Z,94924.19
2023-01-31T20:52:57.098Z,94924.30
2023-01-31T20:55:21.528Z,94922.31
2023-01-31T20:57:47.987Z,94923.14
2023-01-31T21:00:14.327Z,94921.27
2023-01-31T21:02:40.747Z,94924.53
2023-01-31T21:05:07.074Z,94925.13
2023-01-31T21:07:33.441Z,94921.27
2023-01-31T21:09:59.775Z,94912.03
2023-01-31T21:12:26.178Z,94918.00
2023-01-31T21:14:52.537Z,94925.13
2023-01-31T21:17:22.575Z,94921.86
2023-01-31T21:19:45.298Z,94931.78
2023-01-31T21:22:11.677Z,94923.70
2023-01-31T21:24:38.021Z,94924.99
2023-01-31T21:27:04.446Z,94928.52
2023-01-31T21:29:30.759Z,94931.20
2023-01-31T21:31:57.325Z,94927.70
2023-01-31T21:34:23.535Z,94929.08
2023-01-31T21:36:49.984Z,94935.64
2023-01-31T21:39:16.360Z,94938.09
2023-01-31T21:41:42.753Z,94944.65
2023-01-31T21:44:09.111Z,94939.97
2023-01-31T21:46:35.550Z,94945.44
2023-01-31T21:49:01.929Z,94942.41
2023-01-31T21:51:28.320Z,94948.84
2023-01-31T21:53:54.691Z,94951.17
2023-01-31T21:56:21.082Z,94954.58
2023-01-31T21:58:47.425Z,94958.77
2023-01-31T22:01:13.893Z,94957.02
2023-01-31T22:03:40.172Z,94953.29
2023-01-31T22:06:06.552Z,94955.95
2023-01-31T22:08:32.923Z,94954.21
2023-01-31T22:10:59.311Z,94951.87
2023-01-31T22:13:25.665Z,94954.08
2023-01-31T22:15:52.115Z,94953.52
2023-01-31T22:18:18.416Z,94953.02
2023-01-31T22:20:44.803Z,94949.06
2023-01-31T22:23:11.214Z,94945.67
2023-01-31T22:25:37.599Z,94947.55
2023-01-31T22:28:03.946Z,94946.95
2023-01-31T22:30:31.808Z,94952.79
2023-01-31T22:32:56.665Z,94952.20
2023-01-31T22:35:23.072Z,94955.26
2023-01-31T22:37:49.405Z,94953.97
2023-01-31T22:40:15.792Z,94956.88
2023-01-31T22:42:42.137Z,94958.62
2023-01-31T22:45:08.520Z,94960.14
2023-01-31T22:47:34.881Z,94957.23
2023-01-31T22:50:01.250Z,94958.62
2023-01-31T22:52:27.599Z,94962.94
2023-01-31T22:54:53.981Z,94962.48
2023-01-31T22:57:20.326Z,94963.77
2023-01-31T22:59:46.711Z,94952.66
2023-01-31T23:02:13.046Z,94956.18
2023-01-31T23:04:39.511Z,94957.56
2023-01-31T23:07:05.799Z,94955.45
2023-01-31T23:09:32.212Z,94955.81
2023-01-31T23:11:58.561Z,94949.75
2023-01-31T23:14:24.942Z,94950.67
2023-01-31T23:16:51.280Z,94948.20
2023-01-31T23:19:17.665Z,94953.70
2023-01-31T23:21:43.999Z,94957.20
2023-01-31T23:24:10.407Z,94957.20
2023-01-31T23:26:38.048Z,94952.42
2023-01-31T23:29:03.137Z,94960.72
2023-01-31T23:31:29.602Z,94970.55
2023-01-31T23:33:55.868Z,94963.03
2023-01-31T23:36:22.221Z,94966.42
2023-01-31T23:38:48.604Z,94963.16
2023-01-31T23:41:14.949Z,94965.73
2023-01-31T23:43:41.321Z,94970.74
2023-01-31T23:46:07.710Z,94972.16
2023-01-31T23:48:34.059Z,94973.91
2023-01-31T23:51:00.424Z,94970.51
2023-01-31T23:53:28.141Z,94981.25
2023-01-31T23:55:53.215Z,94977.76
2023-01-31T23:58:19.563Z,94978.22
